Time;durP1;ratioP1;P1;durP2;ratioP2;P2;SDS_P1;SDS_P2;PMS_P1;PMS_P2;Temp;Humidity;BMP_temperature;BMP_pressure;BME280_temperature;BME280_humidity;BME280_pressure;Samples;Min_cycle;Max_cycle;Signal;HPM_P1;HPM_P2
2022/11/03 00:00:35;;;;;;;11.25;2.63;;;12.50;99.90;;;;;;2076709;28;20083;-70
2022/11/03 00:01:44;;;;;;;6.50;2.10;;;12.60;99.90;;;;;;2075573;28;20030;-70
2022/11/03 00:02:44;;;;;;;9.57;2.60;;;12.60;99.90;;;;;;2075724;28;20478;-70
2022/11/03 00:03:45;;;;;;;8.85;2.70;;;12.60;99.90;;;;;;2077266;28;20483;-70
2022/11/03 00:04:45;;;;;;;11.88;2.50;;;12.60;99.90;;;;;;2077014;28;20037;-70
2022/11/03 00:06:05;;;;;;;10.43;2.67;;;12.60;99.90;;;;;;2077704;28;20030;-70
2022/11/03 00:07:05;;;;;;;9.65;2.97;;;12.60;99.90;;;;;;2079089;28;20037;-70
2022/11/03 00:08:06;;;;;;;11.60;2.42;;;12.60;99.90;;;;;;2077930;28;20113;-70
2022/11/03 00:09:11;;;;;;;11.10;3.05;;;12.60;99.90;;;;;;2079095;28;20350;-70
2022/11/03 00:10:12;;;;;;;7.95;2.17;;;12.60;99.90;;;;;;2079483;28;20029;-70
2022/11/03 00:11:13;;;;;;;11.45;2.42;;;12.60;99.90;;;;;;2079954;28;20203;-70
2022/11/03 00:12:14;;;;;;;10.02;2.47;;;12.50;99.90;;;;;;2079247;28;20036;-70
2022/11/03 00:13:15;;;;;;;8.75;2.33;;;12.60;99.90;;;;;;2076258;28;20092;-70
2022/11/03 00:14:16;;;;;;;9.25;2.50;;;12.60;99.90;;;;;;2078711;28;20120;-70
2022/11/03 00:15:16;;;;;;;8.23;2.80;;;12.60;99.90;;;;;;2078636;28;20017;-70
2022/11/03 00:16:17;;;;;;;10.93;2.75;;;12.50;99.90;;;;;;2078969;28;20025;-70
2022/11/03 00:17:17;;;;;;;13.10;2.88;;;12.60;99.90;;;;;;2078924;28;20573;-70
2022/11/03 00:18:18;;;;;;;9.27;2.35;;;12.50;99.90;;;;;;2078311;28;20026;-70
2022/11/03 00:19:19;;;;;;;9.02;2.60;;;12.60;99.90;;;;;;2079030;28;20026;-70
2022/11/03 00:20:19;;;;;;;10.52;2.97;;;12.60;99.90;;;;;;2080032;28;20017;-70
2022/11/03 00:21:20;;;;;;;10.38;2.67;;;12.60;99.90;;;;;;2080018;28;20037;-70
2022/11/03 00:22:20;;;;;;;6.53;2.25;;;12.60;99.90;;;;;;2079245;28;20037;-70
2022/11/03 00:23:21;;;;;;;13.20;2.60;;;12.60;99.90;;;;;;2078755;28;20375;-70
2022/11/03 00:24:21;;;;;;;8.63;2.50;;;12.60;99.90;;;;;;2080198;28;20809;-70
2022/11/03 00:25:22;;;;;;;13.52;2.58;;;12.60;99.90;;;;;;2079614;28;21026;-70
2022/11/03 00:26:25;;;;;;;8.60;2.53;;;12.60;99.90;;;;;;2079664;28;20030;-70
2022/11/03 00:27:25;;;;;;;10.05;3.17;;;12.60;99.90;;;;;;2079334;28;20041;-70
2022/11/03 00:28:26;;;;;;;10.85;2.75;;;12.60;99.90;;;;;;2078421;28;20108;-70
2022/11/03 00:29:26;;;;;;;14.20;3.35;;;12.60;99.90;;;;;;2078995;28;20026;-70
2022/11/03 00:30:27;;;;;;;12.88;2.83;;;12.60;99.90;;;;;;2078634;28;20076;-70
2022/11/03 00:31:32;;;;;;;12.10;2.55;;;12.60;99.90;;;;;;2076704;28;20056;-70
2022/11/03 00:32:33;;;;;;;14.15;3.25;;;12.60;99.90;;;;;;2078695;28;20029;-70
2022/11/03 00:33:34;;;;;;;10.45;2.78;;;12.60;99.90;;;;;;2077770;28;20052;-70
2022/11/03 00:34:35;;;;;;;10.32;2.90;;;12.60;99.90;;;;;;2079181;28;20700;-70
2022/11/03 00:35:35;;;;;;;7.90;2.53;;;12.60;99.90;;;;;;2080247;28;20025;-70
2022/11/03 00:36:41;;;;;;;9.63;3.03;;;12.60;99.90;;;;;;2078732;28;20024;-70
2022/11/03 00:37:42;;;;;;;9.05;3.05;;;12.60;99.90;;;;;;2078151;28;20108;-70
2022/11/03 00:38:43;;;;;;;10.18;3.25;;;12.60;99.90;;;;;;2078089;28;20049;-70
2022/11/03 00:39:43;;;;;;;11.95;3.13;;;12.60;99.90;;;;;;2077035;28;20068;-70
2022/11/03 00:40:44;;;;;;;6.10;2.20;;;12.60;99.90;;;;;;2078367;28;20664;-70
2022/11/03 00:41:44;;;;;;;12.13;3.00;;;12.60;99.90;;;;;;2076509;28;20497;-70
2022/11/03 00:42:45;;;;;;;11.27;2.90;;;12.60;99.90;;;;;;2078590;28;20432;-70
2022/11/03 00:43:46;;;;;;;11.20;2.90;;;12.60;99.90;;;;;;2079556;28;20034;-70
2022/11/03 00:44:47;;;;;;;10.02;2.90;;;12.60;99.90;;;;;;2080434;28;20108;-70
2022/11/03 00:45:48;;;;;;;12.35;2.92;;;12.60;99.90;;;;;;2078768;28;20045;-70
2022/11/03 00:46:48;;;;;;;15.32;2.90;;;12.60;99.90;;;;;;2079925;28;20039;-70
2022/11/03 00:48:28;;;;;;;10.38;2.70;;;12.70;99.90;;;;;;2077975;28;20029;-70
2022/11/03 00:49:10;;;;;;;9.95;3.05;;;12.60;99.90;;;;;;2079534;28;20026;-70
2022/11/03 00:50:10;;;;;;;9.85;2.63;;;12.60;99.90;;;;;;2078933;28;20061;-70
2022/11/03 00:51:15;;;;;;;12.05;3.13;;;12.60;99.90;;;;;;2075879;28;20025;-70
2022/11/03 00:52:15;;;;;;;8.13;2.38;;;12.70;99.90;;;;;;2078184;28;21273;-70
2022/11/03 00:53:16;;;;;;;12.45;3.20;;;12.70;99.90;;;;;;2078164;28;20416;-70
2022/11/03 00:54:16;;;;;;;9.85;2.67;;;12.60;99.90;;;;;;2078882;28;20428;-70
2022/11/03 00:55:17;;;;;;;11.50;3.17;;;12.70;99.90;;;;;;2078305;28;20396;-70
2022/11/03 00:56:24;;;;;;;15.25;3.28;;;12.70;99.90;;;;;;2078565;28;20079;-70
2022/11/03 00:57:25;;;;;;;16.67;3.78;;;12.70;99.90;;;;;;2079290;28;20095;-70
2022/11/03 00:58:26;;;;;;;8.68;2.72;;;12.70;99.90;;;;;;2078684;28;20033;-70
2022/11/03 00:59:27;;;;;;;8.15;2.80;;;12.70;99.90;;;;;;2078351;28;20390;-70
2022/11/03 01:00:27;;;;;;;11.80;3.05;;;12.70;99.90;;;;;;2078382;28;20029;-70
2022/11/03 01:01:30;;;;;;;17.55;3.45;;;12.70;99.90;;;;;;2078861;28;20029;-70
2022/11/03 01:02:31;;;;;;;15.18;3.80;;;12.70;99.90;;;;;;2080301;28;20501;-70
2022/11/03 01:03:34;;;;;;;12.48;2.95;;;12.70;99.90;;;;;;2077202;28;20063;-70
2022/11/03 01:07:12;;;;;;;9.93;3.17;;;12.80;99.90;;;;;;2078225;28;20107;-70
2022/11/03 01:08:13;;;;;;;10.85;2.75;;;12.80;99.90;;;;;;2076352;28;20038;-70
2022/11/03 01:09:14;;;;;;;8.35;2.92;;;12.80;99.90;;;;;;2077444;28;20554;-70
2022/11/03 01:10:14;;;;;;;11.07;2.80;;;12.80;99.90;;;;;;2077757;28;20092;-70
2022/11/03 01:12:39;;;;;;;11.23;2.85;;;12.80;99.90;;;;;;2078789;28;20742;-70
2022/11/03 01:13:40;;;;;;;11.40;2.80;;;12.80;99.90;;;;;;2078280;28;20392;-70
2022/11/03 01:14:42;;;;;;;10.43;3.38;;;12.80;99.90;;;;;;2079413;28;20406;-70
2022/11/03 01:15:43;;;;;;;11.43;2.83;;;12.80;99.90;;;;;;2080021;28;20549;-70
2022/11/03 01:16:43;;;;;;;9.40;2.80;;;12.90;99.90;;;;;;2078886;28;20048;-70
2022/11/03 01:17:44;;;;;;;10.25;3.40;;;12.90;99.90;;;;;;2078386;28;20100;-70
2022/11/03 01:18:44;;;;;;;7.63;2.85;;;12.90;99.90;;;;;;2078098;28;20029;-70
2022/11/03 01:19:46;;;;;;;15.50;2.72;;;12.90;99.90;;;;;;2077599;28;20049;-70
2022/11/03 01:20:52;;;;;;;13.63;3.08;;;12.90;99.90;;;;;;2078844;28;20033;-70
2022/11/03 01:21:53;;;;;;;8.93;3.05;;;12.90;99.90;;;;;;2078680;28;20044;-70
2022/11/03 01:22:53;;;;;;;13.95;3.60;;;12.90;99.90;;;;;;2078316;28;20036;-70
2022/11/03 01:23:54;;;;;;;8.05;3.03;;;12.90;99.90;;;;;;2078166;28;20074;-70
2022/11/03 01:24:54;;;;;;;11.68;3.08;;;12.90;99.90;;;;;;2077833;28;20070;-70
2022/11/03 01:25:55;;;;;;;7.20;2.80;;;12.90;99.90;;;;;;2078746;28;20057;-70
2022/11/03 01:26:56;;;;;;;11.90;3.45;;;12.90;99.90;;;;;;2077844;28;20033;-70
2022/11/03 01:27:57;;;;;;;9.02;2.97;;;12.90;99.90;;;;;;2078346;28;20026;-70
2022/11/03 01:28:58;;;;;;;13.68;3.72;;;12.90;99.90;;;;;;2078631;28;20025;-70
2022/11/03 01:29:59;;;;;;;9.68;2.95;;;13.00;99.90;;;;;;2078069;28;20432;-70
2022/11/03 01:31:08;;;;;;;9.00;3.10;;;13.00;99.90;;;;;;2078309;28;20086;-70
2022/11/03 01:32:09;;;;;;;10.23;2.55;;;12.90;99.90;;;;;;2078749;28;20029;-70
2022/11/03 01:33:10;;;;;;;9.02;2.78;;;13.00;99.90;;;;;;2079394;28;20051;-70
2022/11/03 01:34:15;;;;;;;9.85;2.83;;;12.90;99.90;;;;;;2079003;28;20030;-70
2022/11/03 01:35:16;;;;;;;10.88;3.15;;;13.00;99.90;;;;;;2077750;28;20037;-70
2022/11/03 01:36:17;;;;;;;10.98;2.97;;;13.00;99.90;;;;;;2076271;28;20018;-70
2022/11/03 01:37:18;;;;;;;13.63;3.45;;;13.00;99.90;;;;;;2078314;28;20025;-70
2022/11/03 01:38:18;;;;;;;13.43;2.92;;;13.00;99.90;;;;;;2078877;28;20026;-70
2022/11/03 01:39:19;;;;;;;9.65;3.25;;;13.00;99.90;;;;;;2077829;28;20043;-70
2022/11/03 01:40:20;;;;;;;16.08;3.75;;;13.00;99.90;;;;;;2078238;28;20111;-70
2022/11/03 01:41:23;;;;;;;10.20;3.03;;;13.00;99.90;;;;;;2077327;28;20025;-70
2022/11/03 01:42:24;;;;;;;12.95;3.47;;;13.00;99.90;;;;;;2076798;28;20125;-70
2022/11/03 01:43:27;;;;;;;11.10;3.40;;;13.00;99.90;;;;;;2078177;28;20088;-70
2022/11/03 01:44:34;;;;;;;14.18;3.10;;;13.00;99.90;;;;;;2079819;28;20781;-70
2022/11/03 01:45:34;;;;;;;10.38;3.30;;;13.00;99.90;;;;;;2079150;28;20017;-70
2022/11/03 01:47:01;;;;;;;12.30;3.20;;;13.00;99.90;;;;;;2079072;28;20338;-70
2022/11/03 01:48:02;;;;;;;11.73;3.33;;;13.00;99.90;;;;;;2068484;28;20056;-70
2022/11/03 01:49:22;;;;;;;10.23;3.00;;;13.00;99.90;;;;;;2078251;28;20051;-70
2022/11/03 01:50:22;;;;;;;13.85;3.53;;;13.00;99.90;;;;;;2078396;28;20045;-70
2022/11/03 01:51:26;;;;;;;12.70;4.10;;;13.00;99.90;;;;;;2079183;28;20037;-70
2022/11/03 01:52:35;;;;;;;11.60;3.47;;;13.00;99.90;;;;;;2076869;28;20026;-70
2022/11/03 01:53:41;;;;;;;10.38;3.20;;;13.00;99.90;;;;;;2077880;28;20017;-70
2022/11/03 01:54:43;;;;;;;13.15;3.35;;;13.00;99.90;;;;;;2078732;28;20052;-70
2022/11/03 01:55:46;;;;;;;11.88;3.38;;;13.00;99.90;;;;;;2084992;28;20032;-70
2022/11/03 01:56:47;;;;;;;11.60;2.78;;;13.00;99.90;;;;;;2083153;28;20112;-70
2022/11/03 01:58:12;;;;;;;16.65;2.95;;;13.00;99.90;;;;;;2079326;28;20029;-70
2022/11/03 01:59:19;;;;;;;8.55;2.63;;;13.00;99.90;;;;;;2078817;28;20065;-70
2022/11/03 02:00:20;;;;;;;13.05;3.17;;;13.00;99.90;;;;;;2078958;28;20049;-70
2022/11/03 02:01:21;;;;;;;11.20;3.50;;;13.00;99.90;;;;;;2078167;28;20056;-70
2022/11/03 02:02:22;;;;;;;12.93;3.17;;;13.00;99.90;;;;;;2078704;28;20033;-70
2022/11/03 02:03:23;;;;;;;9.90;2.83;;;13.00;99.90;;;;;;2078658;28;20497;-70
2022/11/03 02:04:29;;;;;;;8.50;2.70;;;13.00;99.90;;;;;;2077232;28;20033;-70
2022/11/03 02:05:29;;;;;;;12.02;3.47;;;13.00;99.90;;;;;;2078265;28;20505;-70
2022/11/03 02:06:30;;;;;;;8.60;3.00;;;13.00;99.90;;;;;;2076849;28;20261;-70
2022/11/03 02:08:04;;;;;;;13.20;2.92;;;13.00;99.90;;;;;;2076455;28;20032;-70
2022/11/03 02:09:07;;;;;;;11.63;3.15;;;13.00;99.90;;;;;;2078272;28;20025;-70
2022/11/03 02:10:08;;;;;;;10.60;2.90;;;13.00;99.90;;;;;;2077761;28;20528;-70
2022/11/03 02:12:29;;;;;;;11.07;2.88;;;13.00;99.90;;;;;;2078541;28;20490;-70
2022/11/03 02:13:29;;;;;;;12.15;2.67;;;13.00;99.90;;;;;;2077109;28;20068;-70
2022/11/03 02:14:30;;;;;;;9.50;2.80;;;13.00;99.90;;;;;;2078242;28;20022;-70
2022/11/03 02:15:32;;;;;;;12.10;3.40;;;13.00;99.90;;;;;;2078010;28;20022;-70
2022/11/03 02:16:32;;;;;;;9.00;2.85;;;13.00;99.90;;;;;;2078409;28;20020;-70
2022/11/03 02:17:34;;;;;;;7.53;2.67;;;13.00;99.90;;;;;;2078734;28;20473;-70
2022/11/03 02:18:35;;;;;;;12.60;2.88;;;13.00;99.90;;;;;;2078390;28;20013;-70
2022/11/03 02:19:55;;;;;;;11.35;3.50;;;13.00;99.90;;;;;;2078252;28;20079;-70
2022/11/03 02:21:14;;;;;;;13.07;3.83;;;13.00;99.90;;;;;;2078646;28;20436;-70
2022/11/03 02:22:26;;;;;;;13.95;2.90;;;12.90;99.90;;;;;;2077306;28;20053;-70
2022/11/03 02:23:46;;;;;;;10.65;2.85;;;12.90;99.90;;;;;;2078273;28;20033;-70
2022/11/03 02:24:50;;;;;;;9.95;3.40;;;12.90;99.90;;;;;;2077701;28;20033;-70
2022/11/03 02:25:56;;;;;;;14.10;3.33;;;12.90;99.90;;;;;;2077988;28;20057;-70
2022/11/03 02:26:57;;;;;;;12.20;2.80;;;12.90;99.90;;;;;;2078420;28;20108;-70
2022/11/03 02:27:58;;;;;;;9.48;2.80;;;12.90;99.90;;;;;;2076961;28;20036;-70
2022/11/03 02:28:59;;;;;;;9.57;3.15;;;12.90;99.90;;;;;;2077540;28;20116;-70
2022/11/03 02:29:59;;;;;;;7.10;2.85;;;12.90;99.90;;;;;;2078962;28;20036;-70
2022/11/03 02:31:11;;;;;;;9.73;3.35;;;12.90;99.90;;;;;;2077008;28;20108;-70
2022/11/03 02:32:21;;;;;;;11.95;3.17;;;12.90;99.90;;;;;;2078442;28;20049;-70
2022/11/03 02:33:42;;;;;;;;;;;12.90;99.90;;;;;;2076912;28;20029;-70
2022/11/03 02:34:53;;;;;;;10.02;3.50;;;12.80;99.90;;;;;;2065387;28;19905;-70
2022/11/03 02:36:14;;;;;;;8.85;2.75;;;12.80;99.90;;;;;;2076142;28;20531;-70
2022/11/03 02:37:24;;;;;;;6.68;2.85;;;12.80;99.90;;;;;;2076855;28;20033;-70
2022/11/03 02:38:27;;;;;;;13.07;3.22;;;12.80;99.90;;;;;;2078282;28;20021;-70
2022/11/03 02:39:41;;;;;;;11.50;3.33;;;12.90;99.90;;;;;;2078528;28;20025;-70
2022/11/03 02:40:47;;;;;;;11.25;2.85;;;12.90;99.90;;;;;;2076950;28;20034;-70
2022/11/03 02:41:49;;;;;;;14.05;3.10;;;12.90;99.90;;;;;;2078882;28;20487;-70
2022/11/03 02:42:52;;;;;;;11.57;3.30;;;12.90;99.90;;;;;;2078594;28;20044;-70
2022/11/03 02:43:55;;;;;;;13.35;3.60;;;12.90;99.90;;;;;;2077002;28;20122;-70
2022/11/03 02:45:00;;;;;;;10.02;2.80;;;12.90;99.90;;;;;;2075450;28;20485;-70
2022/11/03 02:46:04;;;;;;;9.10;2.95;;;12.90;99.90;;;;;;2077512;28;20029;-70
2022/11/03 02:47:11;;;;;;;8.57;2.63;;;12.90;99.90;;;;;;2077441;28;20061;-70
2022/11/03 02:48:14;;;;;;;11.75;3.22;;;12.90;99.90;;;;;;2077821;28;20026;-70
2022/11/03 02:49:15;;;;;;;9.65;3.03;;;12.90;99.90;;;;;;2077993;28;20025;-70
2022/11/03 02:50:16;;;;;;;7.13;2.60;;;13.00;99.90;;;;;;2078883;28;20017;-70
2022/11/03 02:51:17;;;;;;;11.27;3.28;;;12.90;99.90;;;;;;2077699;28;20021;-70
2022/11/03 02:52:32;;;;;;;8.80;2.38;;;13.00;99.90;;;;;;2077367;28;20033;-70
2022/11/03 02:53:39;;;;;;;8.50;2.63;;;12.90;99.90;;;;;;2076898;28;20037;-70
2022/11/03 02:54:42;;;;;;;13.77;3.28;;;12.90;99.90;;;;;;2076016;28;20500;-70
2022/11/03 02:55:43;;;;;;;10.57;3.22;;;12.90;99.90;;;;;;2076863;28;20115;-70
2022/11/03 02:56:59;;;;;;;10.30;2.97;;;12.90;99.90;;;;;;2077138;28;20017;-70
2022/11/03 02:58:08;;;;;;;9.95;3.03;;;12.90;99.90;;;;;;2078270;28;20048;-70
2022/11/03 02:59:14;;;;;;;6.22;2.20;;;12.90;99.90;;;;;;2078993;28;20033;-70
2022/11/03 03:00:16;;;;;;;10.65;2.90;;;12.90;99.90;;;;;;2076336;28;20072;-70
2022/11/03 03:01:29;;;;;;;9.55;3.20;;;12.90;99.90;;;;;;2078886;28;20110;-70
2022/11/03 03:02:48;;;;;;;9.48;3.10;;;12.90;99.90;;;;;;2078671;28;20021;-70
2022/11/03 03:03:56;;;;;;;8.20;2.10;;;12.90;99.90;;;;;;2076449;28;20039;-70
2022/11/03 03:05:00;;;;;;;8.50;2.60;;;12.90;99.90;;;;;;2075583;28;20021;-70
2022/11/03 03:06:40;;;;;;;7.07;3.00;;;12.90;99.90;;;;;;2077586;28;20117;-70
2022/11/03 03:07:45;;;;;;;8.32;2.40;;;12.90;99.90;;;;;;2076003;28;20472;-70
2022/11/03 03:08:52;;;;;;;11.32;2.75;;;12.90;99.90;;;;;;2077134;28;20025;-70
2022/11/03 03:10:03;;;;;;;9.32;3.08;;;12.90;99.90;;;;;;2077790;28;20040;-70
2022/11/03 03:11:05;;;;;;;10.07;2.92;;;12.90;99.90;;;;;;2078767;28;20029;-70
2022/11/03 03:12:09;;;;;;;11.70;3.10;;;12.90;99.90;;;;;;2076682;28;20793;-70
2022/11/03 03:13:15;;;;;;;12.02;3.25;;;12.90;99.90;;;;;;2076703;28;20489;-70
2022/11/03 03:14:21;;;;;;;21.02;3.70;;;12.90;99.90;;;;;;2077134;28;20022;-70
2022/11/03 03:15:51;;;;;;;11.38;2.60;;;12.90;99.90;;;;;;2077386;28;20485;-70
2022/11/03 03:17:14;;;;;;;7.00;2.47;;;12.90;99.90;;;;;;2075954;28;20050;-70
2022/11/03 03:18:41;;;;;;;13.80;3.03;;;12.90;99.90;;;;;;2077413;28;20029;-70
2022/11/03 03:19:59;;;;;;;14.57;3.35;;;12.90;99.90;;;;;;2076834;28;20038;-70
2022/11/03 03:21:02;;;;;;;9.30;2.63;;;12.90;99.90;;;;;;2076717;28;20025;-70
2022/11/03 03:22:12;;;;;;;10.25;3.45;;;12.80;99.90;;;;;;2078047;28;20021;-70
2022/11/03 03:23:20;;;;;;;9.02;3.00;;;12.90;99.90;;;;;;2076493;28;20489;-70
2022/11/03 03:24:32;;;;;;;9.45;2.83;;;12.90;99.90;;;;;;2078666;28;20037;-70
2022/11/03 03:26:04;;;;;;;9.30;2.30;;;12.90;99.90;;;;;;2078412;28;20033;-70
2022/11/03 03:27:10;;;;;;;8.68;2.55;;;12.90;99.90;;;;;;2078363;28;20115;-70
2022/11/03 03:28:22;;;;;;;10.10;2.38;;;12.90;99.90;;;;;;2077872;28;20033;-70
2022/11/03 03:29:38;;;;;;;9.05;3.08;;;12.90;99.90;;;;;;2079094;28;20029;-70
2022/11/03 03:30:41;;;;;;;10.73;2.85;;;12.80;99.90;;;;;;2077568;28;20064;-70
2022/11/03 03:31:47;;;;;;;14.10;3.47;;;12.90;99.90;;;;;;2078809;28;20030;-70
2022/11/03 03:32:49;;;;;;;8.68;2.60;;;12.90;99.90;;;;;;2078492;28;20026;-70
2022/11/03 03:33:52;;;;;;;10.20;2.97;;;12.90;99.90;;;;;;2076671;28;20502;-70
2022/11/03 03:34:54;;;;;;;8.27;2.65;;;12.90;99.90;;;;;;2076262;28;20117;-70
2022/11/03 03:35:56;;;;;;;11.48;3.00;;;12.90;99.90;;;;;;2077161;28;20028;-70
2022/11/03 03:36:58;;;;;;;12.77;3.03;;;12.90;99.90;;;;;;2078052;28;20033;-70
2022/11/03 03:38:09;;;;;;;11.43;3.40;;;12.90;99.90;;;;;;2077247;28;20068;-70
2022/11/03 03:39:12;;;;;;;15.65;3.35;;;12.90;99.90;;;;;;2075684;28;20017;-70
2022/11/03 03:40:17;;;;;;;9.77;2.28;;;12.90;99.90;;;;;;2079924;28;20452;-70
2022/11/03 03:41:21;;;;;;;8.13;2.53;;;12.90;99.90;;;;;;2079768;28;20037;-70
2022/11/03 03:42:25;;;;;;;9.52;2.70;;;12.90;99.90;;;;;;2078937;28;20504;-70
2022/11/03 03:43:28;;;;;;;10.38;3.10;;;12.90;99.90;;;;;;2080326;28;20026;-70
2022/11/03 03:44:30;;;;;;;9.32;2.97;;;12.90;99.90;;;;;;2076788;28;20026;-70
2022/11/03 03:45:33;;;;;;;11.50;3.15;;;12.90;99.90;;;;;;2077639;28;20100;-70
2022/11/03 03:46:37;;;;;;;9.10;2.55;;;13.00;99.90;;;;;;2078594;28;20025;-70
2022/11/03 03:47:38;;;;;;;9.18;2.47;;;12.90;99.90;;;;;;2078818;28;20022;-70
2022/11/03 03:48:39;;;;;;;7.47;2.65;;;13.00;99.90;;;;;;2079930;28;20033;-70
2022/11/03 03:49:40;;;;;;;12.15;2.90;;;12.90;99.90;;;;;;2078704;28;20022;-70
2022/11/03 03:50:42;;;;;;;10.50;2.33;;;12.90;99.90;;;;;;2078707;28;20049;-70
2022/11/03 03:51:44;;;;;;;11.35;2.72;;;13.00;99.90;;;;;;2080272;28;20428;-70
2022/11/03 03:52:47;;;;;;;11.63;3.10;;;13.00;99.90;;;;;;2078043;28;20013;-70
2022/11/03 03:53:52;;;;;;;11.95;3.15;;;13.00;99.90;;;;;;2078768;28;20030;-70
2022/11/03 03:54:53;;;;;;;10.07;2.53;;;12.90;99.90;;;;;;2078791;28;20022;-70
2022/11/03 03:55:54;;;;;;;13.63;3.08;;;13.00;99.90;;;;;;2078585;28;20021;-70
2022/11/03 03:57:05;;;;;;;9.52;3.00;;;13.00;99.90;;;;;;2076069;28;20429;-70
2022/11/03 03:58:06;;;;;;;8.60;2.42;;;13.00;99.90;;;;;;2078339;28;20055;-70
2022/11/03 03:59:07;;;;;;;9.60;2.63;;;13.00;99.90;;;;;;2079032;28;20363;-70
2022/11/03 04:00:13;;;;;;;12.38;2.90;;;13.00;99.90;;;;;;2077850;28;20048;-70
2022/11/03 04:01:13;;;;;;;10.57;2.97;;;12.90;99.90;;;;;;2079390;28;20022;-70
2022/11/03 04:02:14;;;;;;;8.57;3.35;;;13.00;99.90;;;;;;2079162;28;20036;-70
2022/11/03 04:03:20;;;;;;;8.27;2.13;;;12.90;99.90;;;;;;2079617;28;20052;-70
2022/11/03 04:04:21;;;;;;;11.32;3.97;;;12.90;99.90;;;;;;2079905;28;20040;-70
2022/11/03 04:05:22;;;;;;;10.27;2.45;;;12.90;99.90;;;;;;2080920;28;20117;-70
2022/11/03 04:06:22;;;;;;;10.88;2.78;;;13.00;99.90;;;;;;2080590;28;20508;-70
2022/11/03 04:08:42;;;;;;;10.85;2.70;;;13.00;99.90;;;;;;2078206;28;20477;-70
2022/11/03 04:09:43;;;;;;;12.98;2.65;;;12.90;99.90;;;;;;2078287;28;20532;-70
2022/11/03 04:22:50;;;;;;;11.05;3.17;;;12.90;99.90;;;;;;2080343;28;20068;-70
2022/11/03 04:23:50;;;;;;;9.02;2.85;;;12.90;99.90;;;;;;2079389;28;20029;-70
2022/11/03 04:24:51;;;;;;;10.13;2.58;;;12.90;99.90;;;;;;2078599;28;20061;-70
2022/11/03 04:25:55;;;;;;;13.32;2.80;;;12.90;99.90;;;;;;2078204;28;20477;-70
2022/11/03 04:27:17;;;;;;;9.00;2.85;;;12.90;99.90;;;;;;2078952;28;20038;-70
2022/11/03 04:28:18;;;;;;;9.73;3.00;;;12.90;99.90;;;;;;2077227;28;20080;-70
2022/11/03 04:29:18;;;;;;;9.23;2.47;;;12.90;99.90;;;;;;2078537;28;20058;-70
2022/11/03 04:30:20;;;;;;;10.05;3.05;;;12.90;99.90;;;;;;2078771;28;20032;-70
2022/11/03 04:31:21;;;;;;;12.07;2.72;;;12.90;99.90;;;;;;2078910;28;20061;-70
2022/11/03 04:32:22;;;;;;;10.85;3.38;;;12.90;99.90;;;;;;2077168;28;20420;-70
2022/11/03 04:33:22;;;;;;;11.02;3.00;;;12.90;99.90;;;;;;2077471;28;20072;-70
2022/11/03 04:34:23;;;;;;;9.02;2.92;;;12.90;99.90;;;;;;2077417;28;20029;-70
2022/11/03 04:35:27;;;;;;;14.55;3.67;;;13.00;99.90;;;;;;2080159;28;20033;-70
2022/11/03 04:36:28;;;;;;;13.65;3.38;;;12.90;99.90;;;;;;2080053;28;20033;-70
2022/11/03 04:37:28;;;;;;;7.53;2.35;;;12.90;99.90;;;;;;2079522;28;20033;-70
2022/11/03 04:38:29;;;;;;;9.57;2.90;;;13.00;99.90;;;;;;2076801;28;20800;-70
2022/11/03 04:39:30;;;;;;;7.30;2.95;;;13.00;99.90;;;;;;2079160;28;20052;-70
2022/11/03 04:40:30;;;;;;;12.23;3.03;;;13.00;99.90;;;;;;2079053;28;20079;-70
2022/11/03 04:41:32;;;;;;;7.50;2.45;;;13.00;99.90;;;;;;2077908;28;20025;-70
2022/11/03 04:42:34;;;;;;;9.73;2.83;;;13.00;99.90;;;;;;2078353;28;20571;-70
2022/11/03 04:43:36;;;;;;;10.63;2.80;;;13.00;99.90;;;;;;2077540;28;20075;-70
2022/11/03 04:44:37;;;;;;;10.45;2.58;;;13.00;99.90;;;;;;2079177;28;20029;-70
2022/11/03 04:45:37;;;;;;;7.93;3.10;;;13.00;99.90;;;;;;2077711;28;20065;-70
2022/11/03 04:46:38;;;;;;;9.05;2.65;;;13.00;99.90;;;;;;2078501;28;20022;-70
2022/11/03 04:47:38;;;;;;;10.77;2.80;;;13.00;99.90;;;;;;2079493;28;20116;-70
2022/11/03 04:48:39;;;;;;;9.30;3.03;;;13.00;99.90;;;;;;2076745;28;20037;-70
2022/11/03 04:49:41;;;;;;;8.05;2.42;;;13.00;99.90;;;;;;2077049;28;20135;-70
2022/11/03 04:50:42;;;;;;;12.88;2.50;;;13.10;99.90;;;;;;2079578;28;20120;-70
2022/11/03 04:51:42;;;;;;;12.40;2.50;;;13.10;99.90;;;;;;2078475;28;20022;-70
2022/11/03 04:52:43;;;;;;;9.75;3.13;;;13.00;99.90;;;;;;2079464;28;20504;-70
2022/11/03 04:53:54;;;;;;;10.45;2.42;;;13.10;99.90;;;;;;2077486;28;20714;-70
2022/11/03 04:54:54;;;;;;;11.35;2.95;;;13.10;99.90;;;;;;2077122;28;20029;-70
2022/11/03 04:55:55;;;;;;;13.07;3.40;;;13.10;99.90;;;;;;2077962;28;20032;-70
2022/11/03 04:56:55;;;;;;;10.55;3.03;;;13.10;99.90;;;;;;2079047;28;20428;-70
2022/11/03 04:57:59;;;;;;;9.70;2.90;;;13.10;99.90;;;;;;2078431;28;20033;-70
2022/11/03 04:58:59;;;;;;;9.63;2.92;;;13.10;99.90;;;;;;2079460;28;20022;-70
2022/11/03 05:00:00;;;;;;;10.05;3.03;;;13.10;99.90;;;;;;2077763;28;20087;-70
2022/11/03 05:01:02;;;;;;;9.02;2.70;;;13.10;99.90;;;;;;2078436;28;20030;-70
2022/11/03 05:02:08;;;;;;;22.33;2.78;;;13.10;99.90;;;;;;2078870;28;20029;-70
2022/11/03 05:03:19;;;;;;;7.68;2.97;;;13.10;99.90;;;;;;2077984;28;20063;-70
2022/11/03 05:04:20;;;;;;;11.75;3.28;;;13.10;99.90;;;;;;2078190;28;20033;-70
2022/11/03 05:05:23;;;;;;;10.70;3.00;;;13.10;99.90;;;;;;2079815;28;20404;-70
2022/11/03 05:06:29;;;;;;;7.63;2.30;;;13.10;99.90;;;;;;2078339;28;20033;-70
2022/11/03 05:07:34;;;;;;;10.63;2.83;;;13.10;99.90;;;;;;2078906;28;20535;-70
2022/11/03 05:08:35;;;;;;;7.90;2.45;;;13.10;99.90;;;;;;2080438;28;20479;-70
2022/11/03 05:09:36;;;;;;;8.75;2.85;;;13.10;99.90;;;;;;2079216;28;20032;-70
2022/11/03 05:10:36;;;;;;;8.60;2.78;;;13.10;99.90;;;;;;2079458;28;20059;-70
2022/11/03 05:11:40;;;;;;;7.75;2.45;;;13.10;99.90;;;;;;2079654;28;20454;-70
2022/11/03 05:12:41;;;;;;;9.90;2.72;;;13.20;99.90;;;;;;2078182;28;20752;-70
2022/11/03 05:13:41;;;;;;;9.90;2.70;;;13.10;99.90;;;;;;2078475;28;20045;-70
2022/11/03 05:14:42;;;;;;;8.02;2.50;;;13.10;99.90;;;;;;2080085;28;20056;-70
2022/11/03 05:15:44;;;;;;;5.35;2.75;;;13.10;99.90;;;;;;2079538;28;20017;-70
2022/11/03 05:16:46;;;;;;;13.70;2.70;;;13.20;99.90;;;;;;2080310;28;20544;-70
2022/11/03 05:17:46;;;;;;;10.13;3.25;;;13.10;99.90;;;;;;2077913;28;20029;-70
2022/11/03 05:18:49;;;;;;;10.95;2.75;;;13.10;99.90;;;;;;2078780;28;20037;-70
2022/11/03 05:19:54;;;;;;;10.05;2.60;;;13.20;99.90;;;;;;2079047;28;20040;-70
2022/11/03 05:21:01;;;;;;;11.07;2.78;;;13.20;99.90;;;;;;2079404;28;20021;-70
2022/11/03 05:22:04;;;;;;;8.32;2.67;;;13.10;99.90;;;;;;2079438;28;20033;-70
2022/11/03 05:23:05;;;;;;;11.98;2.92;;;13.10;99.90;;;;;;2079293;28;20044;-70
2022/11/03 05:24:12;;;;;;;6.93;2.67;;;13.10;99.90;;;;;;2077542;28;20030;-70
2022/11/03 05:25:43;;;;;;;8.82;2.80;;;13.20;99.90;;;;;;2078882;28;20778;-70
2022/11/03 05:26:44;;;;;;;13.60;2.97;;;13.20;99.90;;;;;;2078279;28;20032;-70
2022/11/03 05:27:45;;;;;;;18.35;2.88;;;13.10;99.90;;;;;;2079220;28;20033;-70
2022/11/03 05:28:50;;;;;;;12.65;2.85;;;13.10;99.90;;;;;;2078588;28;20030;-70
2022/11/03 05:29:53;;;;;;;8.32;3.55;;;13.10;99.90;;;;;;2076571;28;20142;-70
2022/11/03 05:30:54;;;;;;;12.70;2.88;;;13.10;99.90;;;;;;2078145;28;20109;-70
2022/11/03 05:31:55;;;;;;;11.73;2.63;;;13.10;99.90;;;;;;2076925;28;20040;-70
2022/11/03 05:32:57;;;;;;;7.55;2.88;;;13.10;99.90;;;;;;2079323;28;20057;-70
2022/11/03 05:34:10;;;;;;;10.35;2.83;;;13.10;99.90;;;;;;2077908;28;20393;-70
2022/11/03 05:35:21;;;;;;;7.07;2.53;;;13.10;99.90;;;;;;2077524;28;20017;-70
2022/11/03 05:36:24;;;;;;;9.40;3.17;;;13.10;99.90;;;;;;2078225;28;20063;-70
2022/11/03 05:37:31;;;;;;;8.82;2.50;;;13.10;99.90;;;;;;2078384;28;20474;-70
2022/11/03 05:38:33;;;;;;;9.93;2.60;;;13.10;99.90;;;;;;2079041;28;20029;-70
2022/11/03 05:39:36;;;;;;;10.88;2.95;;;13.10;99.90;;;;;;2078503;28;20496;-70
2022/11/03 05:40:37;;;;;;;10.38;2.35;;;13.10;99.90;;;;;;2078307;28;20033;-69
2022/11/03 05:41:37;;;;;;;14.10;2.95;;;13.10;99.90;;;;;;2077745;28;20087;-70
2022/11/03 05:42:41;;;;;;;8.43;2.97;;;13.10;99.90;;;;;;2077939;28;20022;-70
2022/11/03 05:43:42;;;;;;;9.68;2.80;;;13.10;99.90;;;;;;2078396;28;20549;-69
2022/11/03 05:44:44;;;;;;;14.35;3.53;;;13.10;99.90;;;;;;2078334;28;20034;-70
2022/11/03 05:45:45;;;;;;;8.65;2.53;;;13.10;99.90;;;;;;2079320;28;20036;-70
2022/11/03 05:46:45;;;;;;;10.75;3.17;;;13.10;99.90;;;;;;2078899;28;20034;-70
2022/11/03 05:47:47;;;;;;;11.07;3.17;;;13.10;99.90;;;;;;2079063;28;20612;-70
2022/11/03 05:48:48;;;;;;;7.68;2.78;;;13.10;99.90;;;;;;2078886;28;20378;-70
2022/11/03 05:49:51;;;;;;;10.48;2.90;;;13.10;99.90;;;;;;2076935;28;20021;-70